Time;durP1;ratioP1;P1;durP2;ratioP2;P2;SDS_P1;SDS_P2;PMS_P1;PMS_P2;Temp;Humidity;BMP_temperature;BMP_pressure;BME280_temperature;BME280_humidity;BME280_pressure;Samples;Min_cycle;Max_cycle;Signal;HPM_P1;HPM_P2
2023/06/23 00:00:11;;;;;;;12.65;9.73;;;15.90;99.90;;;;;;5057459;28;20031;-71
2023/06/23 00:02:38;;;;;;;16.15;10.68;;;15.90;99.90;;;;;;5072087;28;20502;-71
2023/06/23 00:05:05;;;;;;;17.67;11.25;;;15.90;99.90;;;;;;5072087;28;20024;-71
2023/06/23 00:07:31;;;;;;;15.10;11.32;;;15.90;99.90;;;;;;5070968;28;20468;-71
2023/06/23 00:09:56;;;;;;;17.05;11.13;;;15.80;99.90;;;;;;5071883;28;20099;-71
2023/06/23 00:12:24;;;;;;;16.33;11.45;;;15.90;99.90;;;;;;5071986;28;20059;-71
2023/06/23 00:14:49;;;;;;;18.85;11.70;;;15.90;99.90;;;;;;5071857;28;20487;-71
2023/06/23 00:17:15;;;;;;;16.50;11.18;;;15.80;99.90;;;;;;5072111;28;20078;-71
2023/06/23 00:19:41;;;;;;;13.88;10.40;;;15.80;99.90;;;;;;5072206;28;20158;-71
2023/06/23 00:22:06;;;;;;;19.25;11.60;;;15.80;99.90;;;;;;5071604;28;20501;-71
2023/06/23 00:24:32;;;;;;;17.48;11.40;;;15.80;99.90;;;;;;5070598;28;20032;-71
2023/06/23 00:26:58;;;;;;;19.48;11.63;;;15.80;99.90;;;;;;5071610;28;20021;-71
2023/06/23 00:29:23;;;;;;;17.30;12.05;;;15.80;99.90;;;;;;5071676;28;20501;-71
2023/06/23 00:31:49;;;;;;;20.58;13.25;;;15.80;99.90;;;;;;5071357;28;20024;-71
2023/06/23 00:34:15;;;;;;;17.63;11.93;;;15.80;99.90;;;;;;5071991;28;20028;-71
2023/06/23 00:36:41;;;;;;;19.30;12.60;;;15.80;99.90;;;;;;5071734;28;20083;-71
2023/06/23 00:39:08;;;;;;;16.65;11.80;;;15.80;99.90;;;;;;5071358;28;20433;-71
2023/06/23 00:41:34;;;;;;;17.30;12.65;;;15.80;99.90;;;;;;5071399;28;20024;-71
2023/06/23 00:44:00;;;;;;;19.67;12.93;;;15.80;99.90;;;;;;5071088;28;20469;-71
2023/06/23 00:46:27;;;;;;;20.55;12.73;;;15.80;99.90;;;;;;5071790;28;20544;-71
2023/06/23 00:48:53;;;;;;;14.68;12.02;;;15.80;99.90;;;;;;5071480;28;20055;-71
2023/06/23 00:51:19;;;;;;;17.67;12.45;;;15.80;99.90;;;;;;5071412;28;20478;-71
2023/06/23 00:53:47;;;;;;;19.02;12.68;;;15.80;99.90;;;;;;5071519;28;20039;-71
2023/06/23 00:56:16;;;;;;;15.75;12.18;;;15.80;99.90;;;;;;5071049;28;20020;-71
2023/06/23 00:58:42;;;;;;;16.98;11.95;;;15.70;99.90;;;;;;5056713;28;20086;-71
2023/06/23 01:01:10;;;;;;;20.77;13.27;;;15.70;99.90;;;;;;5056436;28;20037;-70
2023/06/23 01:03:36;;;;;;;13.70;12.00;;;15.70;99.90;;;;;;5070627;28;20017;-71
2023/06/23 01:06:21;;;;;;;19.23;13.05;;;15.60;99.90;;;;;;5071163;28;20025;-71
2023/06/23 01:08:59;;;;;;;16.27;12.57;;;15.60;99.90;;;;;;5071045;28;20048;-71
2023/06/23 01:12:04;;;;;;;17.38;11.27;;;15.60;99.90;;;;;;5071198;28;20052;-71
2023/06/23 01:15:13;;;;;;;17.85;11.52;;;15.70;99.90;;;;;;5069236;28;20090;-71
2023/06/23 01:18:02;;;;;;;17.42;11.70;;;15.60;99.90;;;;;;5069739;28;20059;-71
2023/06/23 01:20:34;;;;;;;17.63;12.60;;;15.60;99.90;;;;;;5071192;28;20028;-71
2023/06/23 01:23:26;;;;;;;;;;;15.60;99.90;;;;;;5071329;28;20020;-71
2023/06/23 01:26:00;;;;;;;19.85;13.25;;;15.60;99.90;;;;;;5069338;28;19939;-70
2023/06/23 01:28:45;;;;;;;22.75;13.93;;;15.60;99.90;;;;;;5071121;28;20146;-71
2023/06/23 01:31:15;;;;;;;24.15;14.32;;;15.60;99.90;;;;;;5070651;28;20020;-71
2023/06/23 01:33:57;;;;;;;26.85;16.13;;;15.60;99.90;;;;;;5071184;28;20025;-71
2023/06/23 01:36:42;;;;;;;25.55;16.70;;;15.60;99.90;;;;;;5071124;28;20025;-71
2023/06/23 01:39:12;;;;;;;25.23;17.13;;;15.60;99.90;;;;;;5070467;28;20040;-71
2023/06/23 01:41:46;;;;;;;24.17;16.85;;;15.50;99.90;;;;;;5071072;28;20430;-71
2023/06/23 01:44:14;;;;;;;24.45;17.45;;;15.50;99.90;;;;;;5070678;28;20041;-71
2023/06/23 01:46:44;;;;;;;27.40;18.45;;;15.50;99.90;;;;;;5070788;28;20059;-71
2023/06/23 01:49:14;;;;;;;27.23;18.08;;;15.50;99.90;;;;;;5070709;28;20028;-71
2023/06/23 01:51:44;;;;;;;29.25;20.25;;;15.50;99.90;;;;;;5071077;28;20024;-71
2023/06/23 01:54:12;;;;;;;33.92;20.63;;;15.50;99.90;;;;;;5070298;28;20030;-71
2023/06/23 01:56:40;;;;;;;28.55;20.27;;;15.60;99.90;;;;;;5069547;28;20047;-71
2023/06/23 01:59:08;;;;;;;32.22;21.35;;;15.60;99.90;;;;;;5068728;28;20032;-71
2023/06/23 02:01:35;;;;;;;33.35;22.60;;;15.60;99.90;;;;;;5070744;28;20502;-71
2023/06/23 02:04:03;;;;;;;36.25;23.52;;;15.60;99.90;;;;;;5070530;28;20060;-71
2023/06/23 02:06:31;;;;;;;32.60;23.27;;;15.60;99.90;;;;;;5070827;28;20020;-71
2023/06/23 02:08:58;;;;;;;32.35;24.05;;;15.50;99.90;;;;;;5069399;28;20022;-71
2023/06/23 02:11:25;;;;;;;31.35;23.55;;;15.60;99.90;;;;;;5070616;28;20378;-71
2023/06/23 02:13:53;;;;;;;33.30;24.52;;;15.60;99.90;;;;;;5071721;28;20078;-71
2023/06/23 02:16:19;;;;;;;36.22;24.50;;;15.60;99.90;;;;;;5074622;28;20013;-71
2023/06/23 02:18:53;;;;;;;39.97;25.45;;;15.60;99.90;;;;;;5074013;28;20070;-71
2023/06/23 02:21:19;;;;;;;37.40;25.35;;;15.50;99.90;;;;;;5074751;28;20394;-71
2023/06/23 02:23:45;;;;;;;35.00;26.13;;;15.50;99.90;;;;;;5074403;28;20028;-71
2023/06/23 02:26:11;;;;;;;36.15;26.58;;;15.50;99.90;;;;;;5073583;28;20479;-71
2023/06/23 02:28:37;;;;;;;41.88;28.73;;;15.50;99.90;;;;;;5074219;28;20032;-71
2023/06/23 02:31:04;;;;;;;42.83;29.52;;;15.50;99.90;;;;;;5073811;28;20066;-71
2023/06/23 02:33:29;;;;;;;50.40;31.45;;;15.50;99.90;;;;;;5074066;28;20017;-71
2023/06/23 02:35:57;;;;;;;52.47;33.80;;;15.50;99.90;;;;;;5073857;28;20021;-71
2023/06/23 02:38:25;;;;;;;56.92;36.85;;;15.40;99.90;;;;;;5073927;28;20037;-71
2023/06/23 02:40:52;;;;;;;60.67;37.78;;;15.40;99.90;;;;;;5073268;28;20024;-71
2023/06/23 02:43:28;;;;;;;71.07;40.60;;;15.40;99.90;;;;;;5073664;28;20039;-71
2023/06/23 02:45:58;;;;;;;68.22;40.25;;;15.40;99.90;;;;;;5073427;28;20012;-71
2023/06/23 02:48:30;;;;;;;65.38;42.53;;;15.40;99.90;;;;;;5073951;28;20052;-71
2023/06/23 02:50:58;;;;;;;71.55;43.72;;;15.40;99.90;;;;;;5073703;28;20381;-71
2023/06/23 02:53:27;;;;;;;79.10;45.58;;;15.40;99.90;;;;;;5073558;28;20059;-71
2023/06/23 02:56:01;;;;;;;81.85;45.63;;;15.30;99.90;;;;;;5072398;28;20124;-71
2023/06/23 02:58:29;;;;;;;75.43;45.83;;;15.30;99.90;;;;;;5073761;28;20054;-71
2023/06/23 03:00:56;;;;;;;72.43;46.55;;;15.30;99.90;;;;;;5073086;28;20071;-71
2023/06/23 03:03:22;;;;;;;74.65;45.20;;;15.30;99.90;;;;;;5073904;28;20024;-71
2023/06/23 03:05:49;;;;;;;68.35;42.83;;;15.20;99.90;;;;;;5073557;28;20429;-71
2023/06/23 03:08:15;;;;;;;62.67;40.85;;;15.20;99.90;;;;;;5073253;28;20099;-71
2023/06/23 03:10:41;;;;;;;62.20;38.45;;;15.20;99.90;;;;;;5073482;28;20581;-71
2023/06/23 03:13:07;;;;;;;58.95;38.00;;;15.20;99.90;;;;;;5072942;28;20034;-71
2023/06/23 03:15:33;;;;;;;55.92;36.05;;;15.20;99.90;;;;;;5073535;28;20036;-71
2023/06/23 03:18:20;;;;;;;52.88;36.08;;;15.20;99.90;;;;;;5072748;28;20040;-71
2023/06/23 03:20:50;;;;;;;55.78;35.92;;;15.10;99.90;;;;;;5073205;28;20045;-71
2023/06/23 03:23:17;;;;;;;55.88;35.15;;;15.10;99.90;;;;;;5073272;28;20019;-71
2023/06/23 03:25:47;;;;;;;50.72;34.22;;;15.00;99.90;;;;;;5072397;28;20052;-71
2023/06/23 03:28:19;;;;;;;53.10;36.63;;;15.10;99.90;;;;;;5072699;28;20095;-71
2023/06/23 03:30:48;;;;;;;52.80;35.90;;;15.00;99.90;;;;;;5073380;28;20027;-71
2023/06/23 03:33:27;;;;;;;52.67;34.20;;;14.90;99.90;;;;;;5072911;28;20489;-71
2023/06/23 03:35:57;;;;;;;50.05;34.67;;;14.90;99.90;;;;;;5072720;28;20460;-70
2023/06/23 03:38:23;;;;;;;46.90;32.97;;;14.90;99.90;;;;;;5072781;28;20052;-71
2023/06/23 03:41:02;;;;;;;49.63;33.80;;;14.90;99.90;;;;;;5072166;28;20501;-71
2023/06/23 03:43:32;;;;;;;46.38;32.67;;;14.90;99.90;;;;;;5072632;28;20111;-71
2023/06/23 03:46:03;;;;;;;46.80;32.70;;;14.80;99.90;;;;;;5072661;28;20024;-71
2023/06/23 03:48:31;;;;;;;46.70;33.28;;;14.80;99.90;;;;;;5072922;28;20021;-70
2023/06/23 03:51:00;;;;;;;47.80;34.20;;;14.80;99.90;;;;;;5072116;28;20039;-71
2023/06/23 03:53:27;;;;;;;50.95;33.97;;;14.80;99.90;;;;;;5067657;28;20497;-71
2023/06/23 03:55:56;;;;;;;50.92;33.63;;;14.80;99.90;;;;;;5052139;28;20017;-70
2023/06/23 03:58:23;;;;;;;44.35;33.63;;;14.80;99.90;;;;;;5071560;28;20072;-71
2023/06/23 04:00:50;;;;;;;51.72;34.38;;;14.80;99.90;;;;;;5071944;28;20546;-71
2023/06/23 04:03:18;;;;;;;51.45;35.55;;;14.80;99.90;;;;;;5072163;28;20032;-71
2023/06/23 04:05:45;;;;;;;53.75;35.03;;;14.90;99.90;;;;;;5072397;28;20414;-71
2023/06/23 04:08:12;;;;;;;52.58;36.80;;;14.80;99.90;;;;;;5072212;28;20039;-71
2023/06/23 04:10:38;;;;;;;54.00;36.03;;;14.80;99.90;;;;;;5071913;28;20060;-71
2023/06/23 04:13:05;;;;;;;49.00;35.30;;;14.80;99.90;;;;;;5071596;28;20098;-71
2023/06/23 04:15:32;;;;;;;56.40;36.45;;;14.90;99.90;;;;;;5071969;28;20028;-70
2023/06/23 04:18:00;;;;;;;48.35;34.63;;;14.90;99.90;;;;;;5071699;28;20090;-71
2023/06/23 04:20:26;;;;;;;50.40;37.20;;;14.90;99.90;;;;;;5071829;28;20027;-71
2023/06/23 04:22:53;;;;;;;53.13;37.05;;;14.90;99.90;;;;;;5071635;28;20094;-71
2023/06/23 04:25:20;;;;;;;56.03;38.22;;;14.90;99.90;;;;;;5071817;28;20111;-71
2023/06/23 04:27:50;;;;;;;55.40;38.05;;;15.00;99.90;;;;;;5071993;28;20059;-71
2023/06/23 04:30:18;;;;;;;59.78;38.20;;;15.00;99.90;;;;;;5070760;28;20023;-71
2023/06/23 04:32:45;;;;;;;60.78;40.60;;;15.00;99.90;;;;;;5071925;28;20104;-71
2023/06/23 04:35:10;;;;;;;63.28;40.40;;;15.10;99.90;;;;;;5071043;28;20025;-71
2023/06/23 04:37:46;;;;;;;62.78;41.58;;;15.20;99.90;;;;;;5071069;28;20029;-71
2023/06/23 04:40:26;;;;;;;63.13;41.25;;;15.20;99.90;;;;;;5070990;28;20029;-71
2023/06/23 04:43:08;;;;;;;61.67;42.95;;;15.30;99.90;;;;;;5071161;28;20445;-71
2023/06/23 04:45:38;;;;;;;67.80;43.90;;;15.30;99.90;;;;;;5072047;28;20140;-71
2023/06/23 04:48:06;;;;;;;64.97;43.75;;;15.40;99.90;;;;;;5071005;28;20025;-71
2023/06/23 04:50:42;;;;;;;67.28;45.40;;;15.50;99.90;;;;;;5071476;28;20032;-71
2023/06/23 04:53:21;;;;;;;66.93;44.53;;;15.50;99.90;;;;;;5056855;28;20672;-71
2023/06/23 04:55:52;;;;;;;70.32;44.20;;;15.70;99.90;;;;;;5069563;28;20497;-71
2023/06/23 04:58:26;;;;;;;58.10;41.60;;;15.90;99.90;;;;;;5071494;28;20048;-71
2023/06/23 05:01:01;;;;;;;50.28;37.50;;;16.20;99.90;;;;;;5070642;28;20052;-71
2023/06/23 05:03:27;;;;;;;48.35;35.78;;;16.50;99.90;;;;;;5071366;28;20039;-71
2023/06/23 05:05:55;;;;;;;46.17;33.80;;;16.60;99.90;;;;;;5070914;28;20098;-71
2023/06/23 05:08:25;;;;;;;44.08;32.75;;;16.90;99.90;;;;;;5071572;28;20050;-71
2023/06/23 05:10:52;;;;;;;40.88;31.95;;;17.10;99.90;;;;;;5071155;28;20115;-71
2023/06/23 05:13:19;;;;;;;44.53;32.30;;;17.30;99.90;;;;;;5071323;28;20021;-71
2023/06/23 05:15:54;;;;;;;43.47;32.03;;;17.40;99.90;;;;;;5071187;28;21095;-71
2023/06/23 05:18:22;;;;;;;44.70;31.55;;;17.50;99.90;;;;;;5071134;28;20029;-71
2023/06/23 05:20:49;;;;;;;40.60;29.88;;;17.60;99.90;;;;;;5071602;28;20175;-71
2023/06/23 05:23:17;;;;;;;42.80;31.23;;;17.70;99.90;;;;;;5071227;28;20028;-71
2023/06/23 05:25:44;;;;;;;42.00;29.65;;;17.80;99.90;;;;;;5071496;28;20021;-71
2023/06/23 05:28:12;;;;;;;42.85;29.73;;;18.00;99.90;;;;;;5070608;28;20016;-71
2023/06/23 05:30:41;;;;;;;39.15;28.65;;;18.10;99.90;;;;;;5070852;28;20058;-71
2023/06/23 05:33:09;;;;;;;37.70;28.17;;;18.30;99.90;;;;;;5070718;28;20111;-71
2023/06/23 05:35:36;;;;;;;40.28;28.77;;;18.40;99.90;;;;;;5071062;28;20036;-71
2023/06/23 05:38:04;;;;;;;34.83;26.58;;;18.50;99.90;;;;;;5070474;28;20041;-71
2023/06/23 05:40:29;;;;;;;35.78;26.38;;;18.60;99.90;;;;;;5069863;28;20474;-71
2023/06/23 05:42:55;;;;;;;41.80;29.70;;;18.80;99.90;;;;;;5070038;28;20024;-71
2023/06/23 05:45:21;;;;;;;39.72;29.00;;;18.90;99.90;;;;;;5071187;28;20028;-71
2023/06/23 05:48:28;;;;;;;41.72;30.17;;;18.90;99.90;;;;;;5070730;28;20036;-71
2023/06/23 05:50:55;;;;;;;42.38;30.00;;;18.90;99.90;;;;;;5064135;28;20029;-71
2023/06/23 05:53:25;;;;;;;42.35;30.55;;;18.90;99.90;;;;;;5071849;28;20104;-71
2023/06/23 05:56:03;;;;;;;47.10;32.75;;;18.80;99.90;;;;;;5074279;28;20021;-71
2023/06/23 05:58:32;;;;;;;51.30;33.85;;;18.70;99.90;;;;;;5074674;28;20094;-71
2023/06/23 06:01:02;;;;;;;54.63;35.22;;;18.60;99.90;;;;;;5074207;28;20052;-71
2023/06/23 06:03:36;;;;;;;51.80;35.97;;;18.40;99.90;;;;;;5074580;28;20059;-71
2023/06/23 06:06:03;;;;;;;56.10;36.35;;;18.30;99.90;;;;;;5074518;28;20377;-71
2023/06/23 06:08:29;;;;;;;57.15;36.72;;;18.20;99.90;;;;;;5074381;28;20448;-71
2023/06/23 06:10:56;;;;;;;58.95;38.20;;;18.10;99.90;;;;;;5074105;28;20033;-71
2023/06/23 06:13:24;;;;;;;56.17;36.72;;;18.00;99.90;;;;;;5074433;28;20452;-71
2023/06/23 06:15:51;;;;;;;58.03;37.17;;;18.00;99.90;;;;;;5074612;28;20078;-72
2023/06/23 06:18:19;;;;;;;60.80;37.53;;;18.00;99.90;;;;;;5074002;28;20035;-71
2023/06/23 06:20:46;;;;;;;54.97;34.78;;;18.00;99.90;;;;;;5074409;28;20024;-71
2023/06/23 06:23:14;;;;;;;54.13;36.53;;;18.00;99.90;;;;;;5074292;28;20056;-71
2023/06/23 06:25:41;;;;;;;57.25;36.60;;;18.10;99.90;;;;;;5074394;28;20021;-71
2023/06/23 06:28:10;;;;;;;54.72;36.17;;;18.10;99.90;;;;;;5073877;28;20108;-71
2023/06/23 06:30:38;;;;;;;59.08;38.17;;;18.20;99.90;;;;;;5074135;28;20020;-71
2023/06/23 06:33:04;;;;;;;59.45;36.15;;;18.30;99.90;;;;;;5073592;28;20142;-71
2023/06/23 06:35:31;;;;;;;53.72;33.83;;;18.30;99.90;;;;;;5074333;28;20028;-71
2023/06/23 06:37:58;;;;;;;48.60;33.70;;;18.40;99.90;;;;;;5073554;28;20116;-71
2023/06/23 06:40:26;;;;;;;55.05;34.05;;;18.40;99.90;;;;;;5074198;28;20012;-72
2023/06/23 06:42:52;;;;;;;51.92;32.95;;;18.40;99.90;;;;;;5073444;28;20066;-71
2023/06/23 06:45:17;;;;;;;52.20;32.88;;;18.50;99.90;;;;;;5074059;28;20508;-71
2023/06/23 06:47:44;;;;;;;51.55;32.83;;;18.60;99.90;;;;;;5073952;28;20565;-72
2023/06/23 06:50:13;;;;;;;48.00;32.10;;;18.70;99.90;;;;;;5063871;28;20307;-72
2023/06/23 06:52:40;;;;;;;51.60;33.25;;;18.70;99.90;;;;;;5073964;28;20024;-71
2023/06/23 06:55:09;;;;;;;47.63;31.73;;;18.80;99.90;;;;;;5072973;28;20017;-71
2023/06/23 06:57:38;;;;;;;43.20;30.55;;;18.80;99.90;;;;;;5073686;28;20053;-71
2023/06/23 07:00:04;;;;;;;45.05;30.88;;;18.90;99.90;;;;;;5070917;28;20056;-71
2023/06/23 07:02:31;;;;;;;45.70;31.15;;;18.90;99.90;;;;;;5073412;28;20536;-71
2023/06/23 07:04:59;;;;;;;45.97;31.13;;;18.90;99.90;;;;;;5073210;28;20029;-71
2023/06/23 07:07:24;;;;;;;46.67;31.50;;;19.00;99.90;;;;;;5073357;28;20032;-71
2023/06/23 07:09:50;;;;;;;44.63;30.20;;;19.00;99.90;;;;;;5072950;28;20025;-71
2023/06/23 07:12:15;;;;;;;46.85;30.08;;;19.00;99.90;;;;;;5073427;28;20031;-71
2023/06/23 07:14:41;;;;;;;44.50;29.17;;;19.00;99.90;;;;;;5073230;28;20039;-71
2023/06/23 07:17:06;;;;;;;41.30;28.63;;;18.90;99.90;;;;;;5073379;28;20394;-71
2023/06/23 07:19:32;;;;;;;41.88;27.33;;;19.00;99.90;;;;;;5073116;28;20413;-71
2023/06/23 07:21:57;;;;;;;42.60;28.48;;;19.10;99.90;;;;;;5071670;28;20070;-71
2023/06/23 07:24:23;;;;;;;43.95;30.10;;;19.30;99.90;;;;;;5073205;28;20367;-71
2023/06/23 07:26:49;;;;;;;37.08;28.02;;;19.40;99.90;;;;;;5073044;28;20359;-71
2023/06/23 07:29:14;;;;;;;40.72;27.98;;;19.70;99.90;;;;;;5072837;28;20035;-71
2023/06/23 07:31:40;;;;;;;34.67;26.38;;;19.80;99.90;;;;;;5072810;28;20027;-71
2023/06/23 07:34:05;;;;;;;36.80;25.38;;;19.90;99.90;;;;;;5072625;28;20089;-72
2023/06/23 07:36:31;;;;;;;37.58;26.15;;;20.00;99.90;;;;;;5072713;28;20020;-71
2023/06/23 07:38:57;;;;;;;35.05;25.02;;;20.10;99.90;;;;;;5072716;28;20478;-71
2023/06/23 07:41:22;;;;;;;33.80;25.58;;;20.20;99.90;;;;;;5073182;28;20116;-71
2023/06/23 07:43:48;;;;;;;34.88;24.27;;;20.20;99.90;;;;;;5072524;28;20039;-71
2023/06/23 07:46:14;;;;;;;34.60;27.10;;;20.30;99.90;;;;;;5072231;28;20027;-71
2023/06/23 07:48:39;;;;;;;34.15;25.55;;;20.40;99.90;;;;;;5065135;28;20083;-71
2023/06/23 07:51:05;;;;;;;27.45;20.77;;;20.50;99.90;;;;;;5052191;28;20064;-71
2023/06/23 07:53:30;;;;;;;27.33;22.02;;;20.60;99.90;;;;;;5052546;28;20029;-71
2023/06/23 07:55:56;;;;;;;27.65;22.23;;;20.60;99.90;;;;;;5052196;28;20029;-71
2023/06/23 07:58:21;;;;;;;28.83;23.40;;;20.70;99.90;;;;;;5069417;28;20040;-71
2023/06/23 08:00:47;;;;;;;35.63;25.17;;;20.70;99.90;;;;;;5071906;28;20024;-71
2023/06/23 08:03:13;;;;;;;30.00;22.15;;;20.80;99.90;;;;;;5071459;28;20563;-71
2023/06/23 08:05:38;;;;;;;26.98;20.50;;;20.90;99.90;;;;;;5072459;28;20047;-71
2023/06/23 08:08:05;;;;;;;25.20;19.10;;;21.00;99.90;;;;;;5071547;28;20025;-71
2023/06/23 08:10:30;;;;;;;27.40;20.45;;;21.00;99.90;;;;;;5072587;28;20399;-71
2023/06/23 08:12:56;;;;;;;22.23;17.23;;;21.00;99.90;;;;;;5071465;28;20029;-71
2023/06/23 08:15:22;;;;;;;23.20;18.90;;;21.00;99.90;;;;;;5071728;28;20028;-71
2023/06/23 08:17:48;;;;;;;26.48;19.63;;;21.10;99.90;;;;;;5072036;28;20028;-71
2023/06/23 08:20:14;;;;;;;24.92;19.40;;;21.20;99.90;;;;;;5072105;28;20025;-71
2023/06/23 08:22:40;;;;;;;28.55;20.27;;;21.30;99.90;;;;;;5071970;28;20504;-71
2023/06/23 08:25:07;;;;;;;26.98;21.23;;;21.30;99.90;;;;;;5071409;28;20031;-71
2023/06/23 08:27:32;;;;;;;28.10;20.00;;;21.40;99.90;;;;;;5071691;28;20025;-71
2023/06/23 08:29:58;;;;;;;26.38;20.17;;;21.40;99.90;;;;;;5071125;28;20389;-71
2023/06/23 08:32:23;;;;;;;23.50;16.73;;;21.50;99.90;;;;;;5071935;28;20409;-71
2023/06/23 08:34:49;;;;;;;23.85;16.23;;;21.60;99.90;;;;;;5071312;28;20035;-71
2023/06/23 08:37:14;;;;;;;24.73;16.50;;;21.70;99.90;;;;;;5071819;28;20021;-71
2023/06/23 08:39:40;;;;;;;20.85;15.52;;;21.70;99.90;;;;;;5070088;28;20485;-71
2023/06/23 08:42:07;;;;;;;21.70;14.65;;;21.80;99.90;;;;;;5074092;28;20367;-72
2023/06/23 08:44:40;;;;;;;18.45;14.57;;;21.80;99.90;;;;;;5071328;28;20028;-71
2023/06/23 08:47:08;;;;;;;17.15;14.38;;;21.80;99.90;;;;;;5065672;28;20021;-71
2023/06/23 08:49:38;;;;;;;19.55;13.05;;;21.90;99.90;;;;;;5060977;28;20043;-71
2023/06/23 08:52:04;;;;;;;15.80;11.00;;;22.00;99.90;;;;;;5071075;28;20537;-72
2023/06/23 08:54:30;;;;;;;14.65;10.63;;;22.10;99.90;;;;;;5071144;28;20052;-71
2023/06/23 08:56:56;;;;;;;14.23;11.55;;;22.20;99.90;;;;;;5070929;28;20059;-71
2023/06/23 08:59:22;;;;;;;14.30;11.32;;;22.20;99.90;;;;;;5071440;28;20068;-72
2023/06/23 09:01:47;;;;;;;14.60;10.90;;;22.30;99.90;;;;;;5071158;28;20520;-71
2023/06/23 09:04:14;;;;;;;13.30;10.18;;;22.40;99.90;;;;;;5071216;28;20094;-71
2023/06/23 09:06:40;;;;;;;13.38;10.85;;;22.50;99.90;;;;;;5071085;28;20012;-71
2023/06/23 09:09:06;;;;;;;14.90;11.48;;;22.60;99.90;;;;;;5071075;28;20058;-71
2023/06/23 09:11:32;;;;;;;14.05;10.30;;;22.60;99.90;;;;;;5071183;28;20020;-71
2023/06/23 09:14:00;;;;;;;9.98;8.98;;;22.70;99.90;;;;;;5070524;28;20020;-71
2023/06/23 09:16:27;;;;;;;13.30;10.23;;;22.80;99.90;;;;;;5071371;28;20032;-71
2023/06/23 09:18:52;;;;;;;11.15;9.23;;;23.00;99.90;;;;;;5070673;28;20098;-71
2023/06/23 09:21:20;;;;;;;12.05;9.05;;;23.10;99.90;;;;;;5071032;28;20079;-71
2023/06/23 09:24:06;;;;;;;10.98;8.85;;;23.20;99.90;;;;;;5070548;28;20037;-72
2023/06/23 09:26:51;;;;;;;10.30;8.43;;;23.40;99.90;;;;;;5070612;28;20123;-71
2023/06/23 09:29:23;;;;;;;11.02;9.27;;;23.50;99.90;;;;;;5070946;28;20025;-71
2023/06/23 09:31:52;;;;;;;12.35;8.07;;;23.50;99.90;;;;;;5070648;28;20033;-71
2023/06/23 09:34:29;;;;;;;11.57;8.57;;;23.60;99.90;;;;;;5071022;28;20028;-71
2023/06/23 09:37:05;;;;;;;11.80;8.80;;;23.70;99.90;;;;;;5070339;28;20090;-72
2023/06/23 09:39:48;;;;;;;9.77;8.02;;;23.80;99.90;;;;;;5071015;28;20082;-71
2023/06/23 09:42:13;;;;;;;9.95;8.27;;;23.90;99.90;;;;;;5070733;28;20506;-71
2023/06/23 09:44:41;;;;;;;11.02;9.05;;;24.00;99.90;;;;;;5070890;28;20067;-71
2023/06/23 09:47:08;;;;;;;10.70;8.02;;;24.10;99.90;;;;;;5058954;28;20021;-72
2023/06/23 09:49:41;;;;;;;9.77;8.07;;;24.20;99.90;;;;;;5070710;28;20024;-72
2023/06/23 09:52:08;;;;;;;11.98;9.65;;;24.30;99.90;;;;;;5070424;28;20467;-71
2023/06/23 09:54:39;;;;;;;11.98;9.63;;;24.50;99.90;;;;;;5070561;28;20027;-71
2023/06/23 09:57:09;;;;;;;14.85;9.73;;;24.60;99.90;;;;;;5070718;28;20082;-71
2023/06/23 09:59:40;;;;;;;11.98;8.23;;;24.60;99.90;;;;;;5070620;28;20112;-71
2023/06/23 10:02:07;;;;;;;10.27;9.02;;;24.60;99.90;;;;;;5069904;28;20040;-71
2023/06/23 10:04:33;;;;;;;12.43;8.77;;;24.50;99.90;;;;;;5070418;28;20024;-71
2023/06/23 10:07:20;;;;;;;8.25;7.32;;;24.50;99.90;;;;;;5069074;28;20539;-71
2023/06/23 10:09:56;;;;;;;12.68;7.50;;;24.40;99.90;;;;;;5070733;28;20025;-71
2023/06/23 10:12:26;;;;;;;8.23;7.13;;;24.40;99.90;;;;;;5070152;28;20028;-72
2023/06/23 10:14:53;;;;;;;7.22;5.88;;;24.50;99.90;;;;;;5070296;28;20104;-71
2023/06/23 10:17:19;;;;;;;7.07;6.28;;;24.60;99.90;;;;;;5070749;28;20035;-72
2023/06/23 10:19:46;;;;;;;7.40;5.65;;;24.70;99.90;;;;;;5070391;28;20036;-71
2023/06/23 10:22:15;;;;;;;7.60;6.50;;;24.70;99.90;;;;;;5070390;28;20495;-71
2023/06/23 10:24:44;;;;;;;8.70;5.90;;;24.70;99.90;;;;;;5070620;28;20027;-72
2023/06/23 10:27:14;;;;;;;8.10;5.90;;;24.80;99.90;;;;;;5069890;28;20028;-72
2023/06/23 10:29:42;;;;;;;7.65;5.03;;;24.90;99.90;;;;;;5070445;28;20116;-71
2023/06/23 10:32:11;;;;;;;7.35;5.22;;;24.80;99.90;;;;;;5070232;28;20504;-71
2023/06/23 10:34:41;;;;;;;7.88;4.32;;;24.90;99.90;;;;;;5071505;28;20024;-71
2023/06/23 10:37:11;;;;;;;5.78;3.83;;;24.90;99.90;;;;;;5074107;28;20425;-71
2023/06/23 10:39:39;;;;;;;7.90;5.55;;;24.90;99.90;;;;;;5074134;28;20090;-71
2023/06/23 10:42:08;;;;;;;6.85;5.40;;;25.00;99.90;;;;;;5072260;28;20031;-71
2023/06/23 10:44:34;;;;;;;9.18;4.55;;;24.90;99.90;;;;;;5073814;28;20090;-71
2023/06/23 10:47:00;;;;;;;6.18;4.30;;;24.90;99.90;;;;;;5073950;28;20024;-71
2023/06/23 10:49:25;;;;;;;7.10;4.97;;;25.10;99.90;;;;;;5074065;28;20078;-71
2023/06/23 10:51:51;;;;;;;5.50;3.95;;;25.10;99.90;;;;;;5073324;28;20028;-71
2023/06/23 10:54:26;;;;;;;5.78;3.80;;;25.10;99.90;;;;;;5073530;28;20524;-71
2023/06/23 10:56:53;;;;;;;6.05;4.05;;;25.10;99.60;;;;;;5073806;28;20052;-71
2023/06/23 10:59:28;;;;;;;6.13;3.88;;;25.00;99.40;;;;;;5073574;28;20032;-71
2023/06/23 11:02:07;;;;;;;5.65;4.25;;;25.00;99.90;;;;;;5073133;28;20132;-71
2023/06/23 11:04:38;;;;;;;5.68;4.00;;;25.10;99.40;;;;;;5073427;28;20016;-71
2023/06/23 11:07:07;;;;;;;5.55;3.38;;;25.10;99.20;;;;;;5073282;28;20494;-71
2023/06/23 11:09:49;;;;;;;6.40;3.28;;;25.10;98.80;;;;;;5073288;28;20028;-71
2023/06/23 11:12:33;;;;;;;7.70;4.18;;;25.30;98.70;;;;;;5073413;28;20032;-71
2023/06/23 11:15:08;;;;;;;4.15;2.60;;;25.30;97.20;;;;;;5073154;28;20036;-71
2023/06/23 11:18:06;;;;;;;4.93;3.50;;;25.30;96.60;;;;;;5073483;28;20434;-71
2023/06/23 11:20:37;;;;;;;6.28;4.70;;;25.20;96.10;;;;;;5053192;28;20040;-71
2023/06/23 11:23:13;;;;;;;5.68;4.68;;;25.30;96.20;;;;;;5053024;28;20060;-71
2023/06/23 11:25:47;;;;;;;7.03;5.28;;;25.40;96.40;;;;;;5066798;28;20012;-71
2023/06/23 11:28:35;;;;;;;8.27;6.38;;;25.60;96.70;;;;;;5072872;28;20046;-71
2023/06/23 11:31:03;;;;;;;6.32;4.53;;;25.70;96.30;;;;;;5052977;28;20100;-71
2023/06/23 11:33:36;;;;;;;8.25;4.68;;;25.70;95.00;;;;;;5052997;28;20033;-71
2023/06/23 11:36:14;;;;;;;7.18;3.67;;;25.80;94.30;;;;;;5072045;28;20513;-71
2023/06/23 11:38:42;;;;;;;5.15;3.85;;;25.80;94.10;;;;;;5073017;28;20364;-71
2023/06/23 11:41:08;;;;;;;6.72;5.38;;;25.90;94.40;;;;;;5071969;28;20036;-71
2023/06/23 11:43:35;;;;;;;7.30;5.63;;;26.20;94.70;;;;;;5051569;28;20090;-71
2023/06/23 11:46:08;;;;;;;7.13;6.43;;;26.20;95.10;;;;;;5056746;28;20071;-71
2023/06/23 11:48:36;;;;;;;7.32;6.13;;;26.40;94.70;;;;;;5072797;28;20085;-71
2023/06/23 11:51:03;;;;;;;5.53;3.83;;;26.40;94.60;;;;;;5071974;28;20103;-71
2023/06/23 11:53:28;;;;;;;4.88;3.85;;;26.20;93.70;;;;;;5072987;28;20441;-71
2023/06/23 11:55:54;;;;;;;7.50;4.10;;;26.20;93.40;;;;;;5072148;28;20021;-71
2023/06/23 11:58:20;;;;;;;5.30;3.17;;;26.20;93.10;;;;;;5072300;28;20127;-71
2023/06/23 12:00:46;;;;;;;5.00;3.25;;;26.30;93.70;;;;;;5072196;28;20082;-71
2023/06/23 12:03:15;;;;;;;5.25;3.58;;;26.60;93.40;;;;;;5071911;28;20024;-71
2023/06/23 12:05:42;;;;;;;5.63;4.38;;;26.70;93.20;;;;;;5071918;28;20413;-71
2023/06/23 12:08:08;;;;;;;5.25;4.38;;;26.80;92.70;;;;;;5071785;28;20474;-71
2023/06/23 12:10:38;;;;;;;6.35;3.58;;;26.90;92.70;;;;;;5072334;28;20025;-71
2023/06/23 12:13:09;;;;;;;3.95;2.55;;;26.90;92.00;;;;;;5071597;28;20531;-71
2023/06/23 12:15:38;;;;;;;4.22;2.35;;;26.70;91.20;;;;;;5070930;28;20024;-71
2023/06/23 12:18:04;;;;;;;3.03;2.33;;;26.60;90.40;;;;;;5071838;28;20036;-71
2023/06/23 12:20:37;;;;;;;2.83;2.20;;;26.60;90.10;;;;;;5072193;28;20028;-71
2023/06/23 12:23:04;;;;;;;5.55;1.88;;;26.70;89.30;;;;;;5071752;28;20036;-71
2023/06/23 12:25:33;;;;;;;6.55;2.50;;;26.80;89.90;;;;;;5072209;28;20048;-71
2023/06/23 12:28:03;;;;;;;4.28;1.70;;;26.90;89.70;;;;;;5067036;28;20025;-71
2023/06/23 12:30:41;;;;;;;3.05;1.90;;;27.10;88.90;;;;;;5064146;28;20082;-71
2023/06/23 12:33:18;;;;;;;4.95;1.98;;;27.20;88.00;;;;;;5071504;28;20557;-71
2023/06/23 12:36:04;;;;;;;4.07;2.20;;;27.40;86.50;;;;;;5071321;28;20024;-71
2023/06/23 12:38:31;;;;;;;3.65;2.30;;;27.50;85.70;;;;;;5071699;28;20106;-71
2023/06/23 12:41:17;;;;;;;3.63;2.63;;;27.70;86.10;;;;;;5070644;28;20027;-70
2023/06/23 12:43:43;;;;;;;4.53;2.13;;;27.70;84.00;;;;;;5051529;28;20022;-70